createdAt,value
2022-12-04T00:00:32.034Z,7.48
2022-12-04T00:02:58.857Z,7.45
2022-12-04T00:05:25.611Z,7.46
2022-12-04T00:07:52.764Z,7.41
2022-12-04T00:10:19.563Z,7.37
2022-12-04T00:12:46.258Z,7.33
2022-12-04T00:15:28.269Z,7.40
2022-12-04T00:17:55.632Z,7.31
2022-12-04T00:20:23.737Z,7.44
2022-12-04T00:22:50.539Z,7.45
2022-12-04T00:25:17.390Z,7.56
2022-12-04T00:27:44.279Z,7.53
2022-12-04T00:30:11.454Z,7.67
2022-12-04T00:32:38.159Z,7.60
2022-12-04T00:35:05.451Z,7.76
2022-12-04T00:37:33.482Z,7.89
2022-12-04T00:40:00.211Z,7.83
2022-12-04T00:42:28.357Z,7.79
2022-12-04T00:44:55.144Z,7.79
2022-12-04T00:47:21.920Z,7.75
2022-12-04T00:49:48.716Z,7.73
2022-12-04T00:52:15.771Z,7.67
2022-12-04T00:54:42.512Z,7.74
2022-12-04T00:57:09.439Z,7.82
2022-12-04T00:59:38.230Z,7.89
2022-12-04T01:02:05.164Z,8.00
2022-12-04T01:04:32.118Z,8.04
2022-12-04T01:07:04.670Z,8.02
2022-12-04T01:09:32.962Z,8.02
2022-12-04T01:11:59.668Z,7.94
2022-12-04T01:14:26.379Z,7.92
2022-12-04T01:16:53.321Z,7.95
2022-12-04T01:19:20.311Z,8.00
2022-12-04T01:21:47.023Z,8.01
2022-12-04T01:24:14.110Z,8.04
2022-12-04T01:26:40.869Z,8.08
2022-12-04T01:29:07.579Z,8.06
2022-12-04T01:31:34.898Z,8.13
2022-12-04T01:34:01.676Z,8.19
2022-12-04T01:36:29.063Z,8.28
2022-12-04T01:38:56.760Z,8.31
2022-12-04T01:41:26.825Z,8.25
2022-12-04T01:44:36.332Z,8.20
2022-12-04T01:47:03.022Z,8.12
2022-12-04T01:49:45.262Z,8.07
2022-12-04T01:52:16.431Z,8.10
2022-12-04T01:54:47.712Z,8.07
2022-12-04T01:57:16.426Z,8.17
2022-12-04T01:59:49.156Z,8.21
2022-12-04T02:02:19.522Z,8.21
2022-12-04T02:04:46.883Z,8.26
2022-12-04T02:07:13.676Z,8.26
2022-12-04T02:09:42.411Z,8.34
2022-12-04T02:12:16.161Z,8.33
2022-12-04T02:15:05.992Z,8.26
2022-12-04T02:18:08.078Z,8.17
2022-12-04T02:20:40.831Z,8.20
2022-12-04T02:23:37.322Z,8.21
2022-12-04T02:26:31.917Z,8.26
2022-12-04T02:29:20.544Z,8.29
2022-12-04T02:32:04.825Z,8.34
2022-12-04T02:34:48.232Z,8.30
2022-12-04T02:37:21.146Z,8.25
2022-12-04T02:40:03.741Z,8.18
2022-12-04T02:42:43.448Z,8.35
2022-12-04T02:45:15.059Z,8.34
2022-12-04T02:47:44.423Z,8.52
2022-12-04T02:50:18.218Z,8.57
2022-12-04T02:52:53.432Z,8.60
2022-12-04T02:55:28.608Z,8.62
2022-12-04T02:58:01.302Z,8.64
2022-12-04T03:00:30.615Z,8.64
2022-12-04T03:03:06.058Z,8.55
2022-12-04T03:05:41.744Z,8.63
2022-12-04T03:08:17.487Z,8.66
2022-12-04T03:10:50.719Z,8.61
2022-12-04T03:13:29.728Z,8.50
2022-12-04T03:16:06.332Z,8.48
2022-12-04T03:18:40.151Z,8.51
2022-12-04T03:21:20.109Z,8.52
2022-12-04T03:23:52.474Z,8.63
2022-12-04T03:26:21.960Z,8.75
2022-12-04T03:28:54.532Z,8.69
2022-12-04T03:31:32.381Z,8.66
2022-12-04T03:34:05.695Z,8.50
2022-12-04T03:36:41.675Z,8.67
2022-12-04T03:39:31.720Z,8.54
2022-12-04T03:42:20.552Z,8.57
2022-12-04T03:45:08.969Z,8.57
2022-12-04T03:47:57.256Z,8.52
2022-12-04T03:50:42.318Z,8.62
2022-12-04T03:53:17.885Z,8.65
2022-12-04T03:55:56.408Z,8.67
2022-12-04T03:58:29.697Z,8.77
2022-12-04T04:00:58.314Z,8.93
2022-12-04T04:03:33.460Z,9.05
2022-12-04T04:06:06.243Z,9.12
2022-12-04T04:08:39.470Z,9.07
2022-12-04T04:11:14.171Z,9.10
2022-12-04T04:14:12.563Z,8.92
2022-12-04T04:17:02.928Z,8.82
2022-12-04T04:19:50.718Z,8.38
2022-12-04T04:22:37.727Z,8.44
2022-12-04T04:25:10.255Z,8.43
2022-12-04T04:27:37.074Z,8.29
2022-12-04T04:30:05.280Z,8.43
2022-12-04T04:32:44.110Z,8.43
2022-12-04T04:35:16.955Z,8.42
2022-12-04T04:38:05.973Z,8.30
2022-12-04T04:40:44.490Z,8.32
2022-12-04T04:43:36.127Z,8.27
2022-12-04T04:46:10.307Z,8.20
2022-12-04T04:48:41.690Z,8.25
2022-12-04T04:51:12.027Z,8.23
2022-12-04T04:54:04.910Z,8.06
2022-12-04T04:56:31.967Z,8.21
2022-12-04T04:58:58.650Z,8.30
2022-12-04T05:01:28.852Z,8.32
2022-12-04T05:03:55.894Z,8.16
2022-12-04T05:06:22.573Z,8.28
2022-12-04T05:08:49.478Z,8.46
2022-12-04T05:11:18.775Z,8.48
2022-12-04T05:13:45.522Z,8.49
2022-12-04T05:16:15.310Z,8.56
2022-12-04T05:19:05.709Z,8.60
2022-12-04T05:21:33.184Z,8.35
2022-12-04T05:24:00.239Z,8.50
2022-12-04T05:26:27.043Z,8.56
2022-12-04T05:28:53.960Z,8.53
2022-12-04T05:31:20.729Z,8.62
2022-12-04T05:33:47.425Z,8.55
2022-12-04T05:36:14.266Z,8.54
2022-12-04T05:38:41.235Z,8.41
2022-12-04T05:41:08.305Z,8.25
2022-12-04T05:43:35.900Z,8.20
2022-12-04T05:46:04.668Z,8.13
2022-12-04T05:48:32.125Z,8.15
2022-12-04T05:50:58.951Z,8.06
2022-12-04T05:53:25.668Z,8.14
2022-12-04T05:56:00.665Z,8.26
2022-12-04T05:58:28.192Z,8.31
2022-12-04T06:00:55.492Z,8.25
2022-12-04T06:03:22.852Z,7.93
2022-12-04T06:05:49.649Z,7.71
2022-12-04T06:08:16.483Z,7.68
2022-12-04T06:10:43.413Z,7.60
2022-12-04T06:13:10.164Z,7.61
2022-12-04T06:15:40.732Z,7.62
2022-12-04T06:18:07.954Z,7.63
2022-12-04T06:20:35.237Z,7.63
2022-12-04T06:23:02.260Z,7.69
2022-12-04T06:25:29.136Z,7.75
2022-12-04T06:27:55.926Z,7.76
2022-12-04T06:30:23.102Z,7.82
2022-12-04T06:32:49.919Z,7.79
2022-12-04T06:35:16.774Z,7.83
2022-12-04T06:37:43.494Z,7.78
2022-12-04T06:40:10.775Z,7.91
2022-12-04T06:42:37.848Z,7.92
2022-12-04T06:45:05.435Z,8.01
2022-12-04T06:47:34.185Z,7.92
2022-12-04T06:50:00.887Z,8.00
2022-12-04T06:52:27.636Z,8.07
2022-12-04T06:54:54.481Z,8.05
2022-12-04T06:57:21.247Z,8.05
2022-12-04T06:59:47.944Z,8.13
2022-12-04T07:02:14.840Z,8.13
2022-12-04T07:04:41.644Z,8.22
2022-12-04T07:07:10.049Z,8.25
2022-12-04T07:09:37.167Z,8.26
2022-12-04T07:12:04.069Z,8.29
2022-12-04T07:14:30.915Z,8.38
2022-12-04T07:16:58.746Z,8.36
2022-12-04T07:19:25.537Z,8.34
2022-12-04T07:21:52.404Z,8.36
2022-12-04T07:24:19.296Z,8.40
2022-12-04T07:26:46.881Z,8.35
2022-12-04T07:29:13.937Z,8.31
2022-12-04T07:31:41.058Z,8.34
2022-12-04T07:34:08.051Z,8.27
2022-12-04T07:36:34.774Z,8.29
2022-12-04T07:39:01.571Z,8.27
2022-12-04T07:41:28.286Z,8.23
2022-12-04T07:43:55.137Z,8.26
2022-12-04T07:46:24.796Z,8.28
2022-12-04T07:48:51.612Z,8.19
2022-12-04T07:51:24.043Z,8.30
2022-12-04T07:53:53.417Z,8.29
2022-12-04T07:56:20.898Z,8.36
2022-12-04T07:58:48.036Z,8.39
2022-12-04T08:01:16.310Z,8.42
2022-12-04T08:03:48.018Z,8.45
2022-12-04T08:06:17.455Z,8.48
2022-12-04T08:08:44.560Z,8.52
2022-12-04T08:11:14.171Z,8.58
2022-12-04T08:13:41.096Z,8.63
2022-12-04T08:16:11.111Z,8.80
2022-12-04T08:18:38.711Z,8.86
2022-12-04T08:21:12.064Z,8.79
2022-12-04T08:23:40.360Z,9.00
2022-12-04T08:26:08.057Z,9.32
2022-12-04T08:28:35.721Z,9.47
2022-12-04T08:31:07.645Z,9.61
2022-12-04T08:33:34.737Z,9.71
2022-12-04T08:36:02.265Z,9.80
2022-12-04T08:38:30.091Z,9.91
2022-12-04T08:41:03.826Z,9.89
2022-12-04T08:43:30.757Z,10.04
2022-12-04T08:46:02.021Z,10.09
2022-12-04T08:48:29.750Z,10.25
2022-12-04T08:50:56.480Z,10.27
2022-12-04T08:53:24.252Z,10.35
2022-12-04T08:55:52.075Z,10.41
2022-12-04T08:58:20.232Z,10.51
2022-12-04T09:00:47.781Z,10.78
2022-12-04T09:03:19.822Z,10.98
2022-12-04T09:05:46.911Z,11.60
2022-12-04T09:08:15.231Z,12.41
2022-12-04T09:10:42.586Z,12.71
2022-12-04T09:13:09.454Z,12.90
2022-12-04T09:15:40.200Z,12.94
2022-12-04T09:18:08.032Z,12.89
2022-12-04T09:20:34.973Z,12.78
2022-12-04T09:23:04.390Z,12.71
2022-12-04T09:25:32.551Z,12.63
2022-12-04T09:27:59.315Z,12.52
2022-12-04T09:30:26.074Z,12.37
2022-12-04T09:32:52.992Z,12.18
2022-12-04T09:35:19.707Z,12.47
2022-12-04T09:37:46.434Z,12.38
2022-12-04T09:40:38.013Z,11.91
2022-12-04T09:43:54.279Z,11.42
2022-12-04T09:46:35.699Z,11.79
2022-12-04T09:49:10.515Z,12.59
2022-12-04T09:51:40.862Z,13.20
2022-12-04T09:54:17.355Z,12.54
2022-12-04T09:56:51.140Z,11.79
2022-12-04T09:59:23.528Z,11.60
2022-12-04T10:02:18.681Z,12.16
2022-12-04T10:04:45.514Z,13.36
2022-12-04T10:07:22.807Z,14.17
2022-12-04T10:09:59.622Z,15.03
2022-12-04T10:12:52.391Z,16.00
2022-12-04T10:15:50.291Z,15.57
2022-12-04T10:18:52.804Z,15.77
2022-12-04T10:21:28.385Z,16.06
2022-12-04T10:24:11.609Z,16.52
2022-12-04T10:26:44.668Z,16.64
2022-12-04T10:29:24.571Z,16.20
2022-12-04T10:31:55.140Z,15.44
2022-12-04T10:34:26.631Z,14.78
2022-12-04T10:36:55.872Z,14.85
2022-12-04T10:39:35.181Z,15.30
2022-12-04T10:42:38.134Z,15.13
2022-12-04T10:45:06.538Z,14.50
2022-12-04T10:47:35.482Z,14.49
2022-12-04T10:50:16.322Z,14.43
2022-12-04T10:52:43.192Z,14.31
2022-12-04T10:55:11.274Z,15.49
2022-12-04T10:57:46.906Z,15.76
2022-12-04T11:00:30.355Z,15.62
2022-12-04T11:03:01.392Z,14.83
2022-12-04T11:05:30.450Z,15.23
2022-12-04T11:07:58.837Z,16.05
2022-12-04T11:10:44.216Z,16.19
2022-12-04T11:13:10.843Z,16.52
2022-12-04T11:16:04.470Z,16.73
2022-12-04T11:18:34.111Z,16.15
2022-12-04T11:21:02.030Z,15.64
2022-12-04T11:23:46.621Z,15.43
2022-12-04T11:26:14.177Z,15.33
2022-12-04T11:28:54.399Z,14.63
2022-12-04T11:31:23.216Z,14.64
2022-12-04T11:33:52.468Z,14.84
2022-12-04T11:36:32.579Z,15.17
2022-12-04T11:39:04.964Z,14.90
2022-12-04T11:41:33.330Z,14.97
2022-12-04T11:44:01.070Z,14.76
2022-12-04T11:46:34.162Z,14.32
2022-12-04T11:49:03.495Z,14.18
2022-12-04T11:51:58.597Z,13.86
2022-12-04T11:54:54.345Z,13.74
2022-12-04T11:57:44.705Z,13.52
2022-12-04T12:00:13.864Z,13.35
2022-12-04T12:02:51.636Z,13.13
2022-12-04T12:05:33.891Z,13.03
2022-12-04T12:08:17.105Z,12.94
2022-12-04T12:10:59.038Z,12.91
2022-12-04T12:13:28.903Z,12.93
2022-12-04T12:16:07.996Z,12.90
2022-12-04T12:19:14.040Z,12.74
2022-12-04T12:21:46.632Z,12.76
2022-12-04T12:24:21.941Z,12.74
2022-12-04T12:27:20.936Z,12.61
2022-12-04T12:29:57.755Z,12.67
2022-12-04T12:32:37.334Z,12.51
2022-12-04T12:35:13.544Z,12.40
2022-12-04T12:37:46.684Z,12.39
2022-12-04T12:40:28.608Z,12.42
2022-12-04T12:43:05.941Z,12.36
2022-12-04T12:45:55.592Z,12.35
2022-12-04T12:48:47.092Z,12.44
2022-12-04T12:51:30.849Z,12.56
2022-12-04T12:54:09.673Z,12.85
2022-12-04T12:59:28.796Z,13.91
2022-12-04T13:02:02.386Z,14.25
2022-12-04T13:04:40.620Z,14.37
2022-12-04T13:07:20.804Z,14.69
2022-12-04T13:10:02.858Z,15.19
2022-12-04T13:12:33.917Z,15.69
2022-12-04T13:15:00.871Z,15.74
2022-12-04T13:17:35.340Z,15.57
2022-12-04T13:20:10.200Z,15.45
2022-12-04T13:22:56.200Z,15.28
2022-12-04T13:25:46.886Z,15.11
2022-12-04T13:28:22.649Z,14.98
2022-12-04T13:30:55.918Z,14.78
2022-12-04T13:33:25.511Z,14.79
2022-12-04T13:36:36.941Z,14.64
2022-12-04T13:39:31.012Z,14.51
2022-12-04T13:42:06.204Z,14.43
2022-12-04T13:44:35.553Z,14.33
2022-12-04T13:47:08.869Z,14.25
2022-12-04T13:49:38.519Z,14.13
2022-12-04T13:52:20.108Z,14.06
2022-12-04T13:55:00.223Z,14.06
2022-12-04T13:57:28.356Z,13.87
2022-12-04T14:00:06.625Z,14.03
2022-12-04T14:02:36.063Z,14.11
2022-12-04T14:05:06.821Z,14.13
2022-12-04T14:07:39.602Z,14.07
2022-12-04T14:10:07.893Z,14.06
2022-12-04T14:12:41.091Z,14.05
2022-12-04T14:15:21.008Z,14.10
2022-12-04T14:17:59.028Z,14.14
2022-12-04T14:20:28.882Z,14.27
2022-12-04T14:23:06.520Z,14.32
2022-12-04T14:25:39.110Z,14.34
2022-12-04T14:28:41.901Z,14.28
2022-12-04T14:31:08.851Z,14.30
2022-12-04T14:33:43.838Z,14.21
2022-12-04T14:36:19.236Z,14.05
2022-12-04T14:38:49.319Z,13.91
2022-12-04T14:41:23.787Z,13.59
2022-12-04T14:43:50.991Z,13.82
2022-12-04T14:46:32.413Z,13.78
2022-12-04T14:49:13.947Z,13.76
2022-12-04T14:51:46.290Z,13.67
2022-12-04T14:54:31.800Z,13.59
2022-12-04T14:57:17.396Z,13.51
2022-12-04T14:59:53.886Z,13.35
2022-12-04T15:02:34.539Z,13.37
2022-12-04T15:05:02.737Z,13.24
2022-12-04T15:07:32.153Z,13.11
2022-12-04T15:10:20.357Z,12.84
2022-12-04T15:12:49.683Z,12.67
2022-12-04T15:15:25.159Z,12.38
2022-12-04T15:18:14.993Z,12.32
2022-12-04T15:20:51.223Z,12.23
2022-12-04T15:23:19.640Z,12.20
2022-12-04T15:25:52.289Z,12.16
2022-12-04T15:28:28.944Z,11.94
2022-12-04T15:30:58.298Z,11.94
2022-12-04T15:33:32.628Z,11.89
2022-12-04T15:36:08.035Z,11.83
2022-12-04T15:38:36.382Z,11.90
2022-12-04T15:41:03.257Z,12.03
2022-12-04T15:43:41.221Z,12.04
2022-12-04T15:46:35.447Z,12.06
2022-12-04T15:49:18.474Z,12.07
2022-12-04T15:51:48.389Z,12.24
2022-12-04T15:54:21.712Z,12.27
2022-12-04T15:57:22.611Z,12.23
2022-12-04T15:59:51.927Z,12.33
2022-12-04T16:02:28.116Z,12.40
2022-12-04T16:04:55.090Z,12.44
2022-12-04T16:07:27.821Z,12.46
2022-12-04T16:10:03.722Z,12.42
2022-12-04T16:12:33.192Z,12.54
2022-12-04T16:14:59.968Z,12.52
2022-12-04T16:17:33.099Z,12.70
2022-12-04T16:20:01.287Z,12.74
2022-12-04T16:22:30.084Z,12.91
2022-12-04T16:24:57.371Z,12.91
2022-12-04T16:27:25.803Z,12.91
2022-12-04T16:29:53.753Z,12.87
2022-12-04T16:32:24.659Z,12.79
2022-12-04T16:34:51.366Z,12.72
2022-12-04T16:37:20.401Z,12.46
2022-12-04T16:39:47.541Z,12.50
2022-12-04T16:42:35.085Z,12.33
2022-12-04T16:45:02.001Z,12.32
2022-12-04T16:47:28.699Z,12.34
2022-12-04T16:49:55.382Z,12.31
2022-12-04T16:52:22.316Z,12.25
2022-12-04T16:54:49.262Z,12.20
2022-12-04T16:57:15.958Z,12.17
2022-12-04T16:59:42.827Z,12.16
2022-12-04T17:02:28.491Z,12.04
2022-12-04T17:05:03.588Z,12.07
2022-12-04T17:07:45.714Z,12.07
2022-12-04T17:10:15.738Z,11.99
2022-12-04T17:12:44.468Z,11.97
2022-12-04T17:15:17.970Z,12.00
2022-12-04T17:17:45.019Z,11.96
2022-12-04T17:20:14.389Z,11.98
2022-12-04T17:22:41.231Z,11.97
2022-12-04T17:25:09.109Z,11.96
2022-12-04T17:27:37.445Z,11.87
2022-12-04T17:30:09.016Z,11.92
2022-12-04T17:32:36.110Z,11.91
2022-12-04T17:35:04.938Z,11.86
2022-12-04T17:37:33.612Z,11.78
2022-12-04T17:40:00.481Z,11.74
2022-12-04T17:42:27.530Z,11.62
2022-12-04T17:44:54.469Z,11.58
2022-12-04T17:47:21.480Z,11.52
2022-12-04T17:49:48.167Z,11.54
2022-12-04T17:52:15.120Z,11.49
2022-12-04T17:54:42.079Z,11.47
2022-12-04T17:57:08.777Z,11.43
2022-12-04T17:59:35.531Z,11.44
2022-12-04T18:02:02.429Z,11.41
2022-12-04T18:04:29.163Z,11.37
2022-12-04T18:06:56.588Z,11.34
2022-12-04T18:09:23.579Z,11.34
2022-12-04T18:11:50.362Z,11.30
2022-12-04T18:14:19.472Z,11.31
2022-12-04T18:16:50.729Z,11.31
2022-12-04T18:19:17.516Z,11.31
2022-12-04T18:21:44.335Z,11.24
2022-12-04T18:24:11.446Z,11.27
2022-12-04T18:26:41.080Z,11.28
2022-12-04T18:29:08.970Z,11.28
2022-12-04T18:31:36.019Z,11.28
2022-12-04T18:34:05.492Z,11.29
2022-12-04T18:36:33.354Z,11.25
2022-12-04T18:39:04.704Z,11.34
2022-12-04T18:41:32.335Z,11.40
2022-12-04T18:43:59.403Z,11.37
2022-12-04T18:46:26.392Z,11.42
2022-12-04T18:48:54.583Z,11.41
2022-12-04T18:51:33.472Z,11.38
2022-12-04T18:54:03.718Z,11.38
2022-12-04T18:56:30.401Z,11.12
2022-12-04T18:59:03.122Z,11.28
2022-12-04T19:01:32.665Z,11.24
2022-12-04T19:04:03.232Z,11.17
2022-12-04T19:06:34.879Z,11.21
2022-12-04T19:09:04.977Z,11.08
2022-12-04T19:11:32.053Z,11.00
2022-12-04T19:13:59.714Z,11.01
2022-12-04T19:16:27.229Z,11.01
2022-12-04T19:18:54.007Z,10.90
2022-12-04T19:21:20.967Z,10.93
2022-12-04T19:23:58.215Z,10.91
2022-12-04T19:26:30.034Z,10.91
2022-12-04T19:28:57.585Z,10.94
2022-12-04T19:31:33.609Z,10.91
2022-12-04T19:34:01.179Z,10.90
2022-12-04T19:36:30.683Z,10.87
2022-12-04T19:38:58.429Z,10.69
2022-12-04T19:41:30.307Z,10.75
2022-12-04T19:44:01.199Z,10.71
2022-12-04T19:46:30.745Z,10.68
2022-12-04T19:49:03.864Z,10.69
2022-12-04T19:51:34.422Z,10.62
2022-12-04T19:54:01.587Z,10.59
2022-12-04T19:56:30.834Z,10.64
2022-12-04T19:59:00.285Z,10.56
2022-12-04T20:01:29.648Z,10.51
2022-12-04T20:03:58.150Z,10.48
2022-12-04T20:06:27.129Z,10.41
2022-12-04T20:09:05.131Z,10.40
2022-12-04T20:11:32.093Z,10.43
2022-12-04T20:14:01.255Z,10.41
2022-12-04T20:16:29.942Z,10.48
2022-12-04T20:18:57.643Z,10.51
2022-12-04T20:21:28.583Z,10.42
2022-12-04T20:23:55.416Z,10.43
2022-12-04T20:26:25.018Z,10.52
2022-12-04T20:28:52.755Z,10.46
2022-12-04T20:31:28.795Z,10.45
2022-12-04T20:34:00.731Z,10.43
2022-12-04T20:36:38.340Z,10.46
2022-12-04T20:39:06.225Z,10.40
2022-12-04T20:41:33.590Z,10.45
2022-12-04T20:44:03.499Z,10.41
2022-12-04T20:46:32.966Z,10.40
2022-12-04T20:49:01.392Z,10.39
2022-12-04T20:51:33.653Z,10.28
2022-12-04T20:54:01.319Z,10.25
2022-12-04T20:56:31.114Z,10.30
2022-12-04T20:58:59.416Z,10.17
2022-12-04T21:01:27.503Z,10.24
2022-12-04T21:03:54.595Z,10.24
2022-12-04T21:06:24.980Z,10.28
2022-12-04T21:08:53.969Z,10.28
2022-12-04T21:11:21.645Z,10.27
2022-12-04T21:14:06.788Z,10.14
2022-12-04T21:16:34.021Z,10.15
2022-12-04T21:19:01.396Z,10.23
2022-12-04T21:21:28.221Z,10.16
2022-12-04T21:23:54.911Z,10.16
2022-12-04T21:26:22.320Z,10.17
2022-12-04T21:28:49.218Z,10.09
2022-12-04T21:31:15.938Z,10.14
2022-12-04T21:33:42.648Z,10.05
2022-12-04T21:36:10.269Z,10.06
2022-12-04T21:38:39.079Z,9.94
2022-12-04T21:41:10.079Z,9.97
2022-12-04T21:43:37.319Z,9.89
2022-12-04T21:46:09.488Z,9.86
2022-12-04T21:48:37.296Z,9.80
2022-12-04T21:51:21.173Z,9.75
2022-12-04T21:53:57.944Z,9.76
2022-12-04T21:56:25.123Z,9.75
2022-12-04T21:58:52.650Z,9.69
2022-12-04T22:01:21.817Z,9.72
2022-12-04T22:03:49.330Z,9.70
2022-12-04T22:06:16.026Z,9.65
2022-12-04T22:08:42.988Z,9.65
2022-12-04T22:11:11.235Z,9.73
2022-12-04T22:13:38.989Z,9.73
2022-12-04T22:16:09.140Z,9.75
2022-12-04T22:18:36.135Z,9.62
2022-12-04T22:21:12.322Z,9.76
2022-12-04T22:23:39.406Z,9.81
2022-12-04T22:26:09.326Z,9.83
2022-12-04T22:28:36.625Z,9.90
2022-12-04T22:31:07.265Z,9.86
2022-12-04T22:33:34.752Z,9.76
2022-12-04T22:36:07.789Z,9.76
2022-12-04T22:38:47.194Z,9.83
2022-12-04T22:41:23.743Z,9.75
2022-12-04T22:43:50.500Z,9.75
2022-12-04T22:46:18.151Z,9.73
2022-12-04T22:48:45.792Z,9.75
2022-12-04T22:51:15.368Z,9.79
2022-12-04T22:53:54.181Z,9.77
2022-12-04T22:56:22.205Z,9.80
2022-12-04T22:58:49.469Z,9.84
2022-12-04T23:01:21.790Z,9.77
2022-12-04T23:03:49.511Z,9.83
2022-12-04T23:06:18.358Z,9.96
2022-12-04T23:08:46.092Z,10.00
2022-12-04T23:11:20.833Z,10.03
2022-12-04T23:14:00.308Z,10.03
2022-12-04T23:16:29.258Z,10.11
2022-12-04T23:18:56.477Z,10.07
2022-12-04T23:21:23.884Z,10.03
2022-12-04T23:23:53.664Z,10.20
2022-12-04T23:26:23.112Z,10.08
2022-12-04T23:28:50.079Z,10.09
2022-12-04T23:31:17.045Z,10.13
2022-12-04T23:33:43.804Z,10.19
2022-12-04T23:36:13.032Z,10.18
2022-12-04T23:38:41.473Z,10.29
2022-12-04T23:41:12.615Z,10.32
2022-12-04T23:43:39.935Z,10.25
2022-12-04T23:46:10.885Z,10.21
2022-12-04T23:48:39.492Z,10.23
2022-12-04T23:51:06.907Z,10.09
2022-12-04T23:53:33.649Z,9.96
2022-12-04T23:56:04.688Z,10.06
2022-12-04T23:58:32.767Z,10.09
